sensor_id;sensor_type;location;lat;lon;timestamp;pressure;altitude;pressure_sealevel;temperature;humidity
27210;BME280;14721;42.668;23.386;2023-11-21T00:00:20;95133.28;;;4.78;93.29
27210;BME280;14721;42.668;23.386;2023-11-21T00:03:08;95085.25;;;4.38;93.23
27210;BME280;14721;42.668;23.386;2023-11-21T00:06:07;95093.03;;;4.41;93.90
27210;BME280;14721;42.668;23.386;2023-11-21T00:09:02;95086.69;;;4.28;94.63
27210;BME280;14721;42.668;23.386;2023-11-21T00:11:38;95169.94;;;4.53;95.54
27210;BME280;14721;42.668;23.386;2023-11-21T00:14:06;95124.13;;;4.03;96.58
27210;BME280;14721;42.668;23.386;2023-11-21T00:16:32;95129.75;;;4.30;97.44
27210;BME280;14721;42.668;23.386;2023-11-21T00:19:13;95165.81;;;4.48;97.08
27210;BME280;14721;42.668;23.386;2023-11-21T00:21:44;95105.69;;;4.19;97.19
27210;BME280;14721;42.668;23.386;2023-11-21T00:46:40;95078.47;;;3.84;98.69
27210;BME280;14721;42.668;23.386;2023-11-21T00:52:18;95144.88;;;4.11;99.81
27210;BME280;14721;42.668;23.386;2023-11-21T00:55:34;95119.00;;;4.00;100.00
27210;BME280;14721;42.668;23.386;2023-11-21T01:05:40;95133.28;;;4.13;99.75
27210;BME280;14721;42.668;23.386;2023-11-21T01:14:06;95148.91;;;4.18;100.00
27210;BME280;14721;42.668;23.386;2023-11-21T01:16:36;95118.19;;;3.82;100.00
27210;BME280;14721;42.668;23.386;2023-11-21T01:19:30;95115.06;;;3.74;100.00
27210;BME280;14721;42.668;23.386;2023-11-21T01:22:02;95152.75;;;3.95;100.00
27210;BME280;14721;42.668;23.386;2023-11-21T01:24:39;95163.78;;;3.86;100.00
27210;BME280;14721;42.668;23.386;2023-11-21T01:30:32;95100.69;;;3.29;100.00
27210;BME280;14721;42.668;23.386;2023-11-21T01:36:49;95066.09;;;2.99;100.00
27210;BME280;14721;42.668;23.386;2023-11-21T01:40:12;95128.19;;;3.25;100.00
27210;BME280;14721;42.668;23.386;2023-11-21T01:48:58;95137.00;;;3.07;100.00
27210;BME280;14721;42.668;23.386;2023-11-21T01:51:32;95163.81;;;3.16;100.00
27210;BME280;14721;42.668;23.386;2023-11-21T01:57:45;95097.09;;;2.77;100.00
27210;BME280;14721;42.668;23.386;2023-11-21T02:00:50;95155.47;;;3.07;100.00
27210;BME280;14721;42.668;23.386;2023-11-21T02:06:34;95105.25;;;2.54;100.00
27210;BME280;14721;42.668;23.386;2023-11-21T02:09:12;95133.75;;;2.83;100.00
27210;BME280;14721;42.668;23.386;2023-11-21T02:11:40;95151.28;;;2.84;100.00
27210;BME280;14721;42.668;23.386;2023-11-21T02:14:06;95139.84;;;2.84;100.00
27210;BME280;14721;42.668;23.386;2023-11-21T02:16:35;95139.25;;;2.79;100.00
27210;BME280;14721;42.668;23.386;2023-11-21T02:19:10;95152.69;;;2.91;100.00
27210;BME280;14721;42.668;23.386;2023-11-21T02:21:46;95141.09;;;2.77;100.00
27210;BME280;14721;42.668;23.386;2023-11-21T02:24:59;95099.06;;;2.55;100.00
27210;BME280;14721;42.668;23.386;2023-11-21T02:27:45;95069.97;;;2.38;100.00
27210;BME280;14721;42.668;23.386;2023-11-21T02:33:39;95096.72;;;2.49;100.00
27210;BME280;14721;42.668;23.386;2023-11-21T02:36:28;95102.03;;;2.66;100.00
27210;BME280;14721;42.668;23.386;2023-11-21T02:39:13;95141.16;;;2.94;100.00
27210;BME280;14721;42.668;23.386;2023-11-21T02:41:53;95060.09;;;2.43;100.00
27210;BME280;14721;42.668;23.386;2023-11-21T02:44:19;95100.78;;;2.73;100.00
27210;BME280;14721;42.668;23.386;2023-11-21T02:46:57;95136.63;;;2.96;100.00
27210;BME280;14721;42.668;23.386;2023-11-21T02:49:46;95147.63;;;3.05;100.00
27210;BME280;14721;42.668;23.386;2023-11-21T02:52:31;95135.09;;;2.92;100.00
27210;BME280;14721;42.668;23.386;2023-11-21T02:55:12;95094.53;;;2.57;100.00
27210;BME280;14721;42.668;23.386;2023-11-21T02:57:54;95142.06;;;2.93;100.00
27210;BME280;14721;42.668;23.386;2023-11-21T03:00:23;95115.22;;;2.66;100.00
27210;BME280;14721;42.668;23.386;2023-11-21T03:02:53;95114.56;;;2.61;100.00
27210;BME280;14721;42.668;23.386;2023-11-21T03:05:39;95146.06;;;3.01;100.00
27210;BME280;14721;42.668;23.386;2023-11-21T03:08:04;95149.09;;;3.11;100.00
27210;BME280;14721;42.668;23.386;2023-11-21T03:10:30;95128.19;;;2.89;100.00
27210;BME280;14721;42.668;23.386;2023-11-21T03:13:03;95106.78;;;2.77;100.00
27210;BME280;14721;42.668;23.386;2023-11-21T03:15:29;95138.75;;;3.06;100.00
27210;BME280;14721;42.668;23.386;2023-11-21T03:17:58;95142.91;;;3.12;100.00
27210;BME280;14721;42.668;23.386;2023-11-21T03:20:23;95130.31;;;3.17;100.00
27210;BME280;14721;42.668;23.386;2023-11-21T03:22:49;95143.44;;;3.01;100.00
27210;BME280;14721;42.668;23.386;2023-11-21T03:25:15;95138.38;;;2.97;100.00
27210;BME280;14721;42.668;23.386;2023-11-21T03:27:47;95151.50;;;2.98;100.00
27210;BME280;14721;42.668;23.386;2023-11-21T03:30:26;95060.38;;;2.37;100.00
27210;BME280;14721;42.668;23.386;2023-11-21T03:33:14;95163.81;;;2.98;100.00
27210;BME280;14721;42.668;23.386;2023-11-21T03:35:58;95103.53;;;2.53;100.00
27210;BME280;14721;42.668;23.386;2023-11-21T03:38:26;95153.41;;;2.95;100.00
27210;BME280;14721;42.668;23.386;2023-11-21T03:40:54;95158.25;;;2.85;100.00
27210;BME280;14721;42.668;23.386;2023-11-21T03:43:20;95113.63;;;2.81;100.00
27210;BME280;14721;42.668;23.386;2023-11-21T03:45:45;95127.53;;;2.84;100.00
27210;BME280;14721;42.668;23.386;2023-11-21T03:48:12;95154.19;;;2.97;100.00
27210;BME280;14721;42.668;23.386;2023-11-21T03:50:38;95138.59;;;2.92;100.00
27210;BME280;14721;42.668;23.386;2023-11-21T03:53:06;95127.88;;;2.95;100.00
27210;BME280;14721;42.668;23.386;2023-11-21T03:55:34;95125.94;;;2.99;100.00
27210;BME280;14721;42.668;23.386;2023-11-21T03:58:00;95120.88;;;2.94;100.00
27210;BME280;14721;42.668;23.386;2023-11-21T04:00:31;95071.09;;;2.51;100.00
27210;BME280;14721;42.668;23.386;2023-11-21T04:02:59;95096.53;;;2.71;100.00
27210;BME280;14721;42.668;23.386;2023-11-21T04:05:35;95090.38;;;2.70;100.00
27210;BME280;14721;42.668;23.386;2023-11-21T04:08:04;95128.25;;;2.88;100.00
27210;BME280;14721;42.668;23.386;2023-11-21T04:10:42;95068.25;;;2.56;100.00
27210;BME280;14721;42.668;23.386;2023-11-21T04:13:11;95075.16;;;2.58;100.00
27210;BME280;14721;42.668;23.386;2023-11-21T04:15:59;95133.03;;;2.98;100.00
27210;BME280;14721;42.668;23.386;2023-11-21T04:18:43;95025.75;;;2.26;100.00
27210;BME280;14721;42.668;23.386;2023-11-21T04:22:00;95105.09;;;2.76;100.00
27210;BME280;14721;42.668;23.386;2023-11-21T04:28:09;95061.44;;;2.69;100.00
27210;BME280;14721;42.668;23.386;2023-11-21T04:36:08;95047.19;;;2.37;100.00
27210;BME280;14721;42.668;23.386;2023-11-21T04:39:15;95087.47;;;2.76;100.00
27210;BME280;14721;42.668;23.386;2023-11-21T04:41:46;95057.69;;;2.74;100.00
27210;BME280;14721;42.668;23.386;2023-11-21T04:44:51;95091.84;;;2.77;100.00
27210;BME280;14721;42.668;23.386;2023-11-21T04:47:40;95107.59;;;2.96;100.00
27210;BME280;14721;42.668;23.386;2023-11-21T04:50:08;95089.50;;;2.88;100.00
27210;BME280;14721;42.668;23.386;2023-11-21T04:52:36;95032.13;;;2.58;100.00
27210;BME280;14721;42.668;23.386;2023-11-21T04:55:41;95121.81;;;2.93;100.00
27210;BME280;14721;42.668;23.386;2023-11-21T04:58:29;95115.13;;;2.86;100.00
27210;BME280;14721;42.668;23.386;2023-11-21T05:00:58;95126.22;;;3.11;100.00
27210;BME280;14721;42.668;23.386;2023-11-21T05:03:24;95103.50;;;2.90;100.00
27210;BME280;14721;42.668;23.386;2023-11-21T05:08:51;95067.28;;;2.75;100.00
27210;BME280;14721;42.668;23.386;2023-11-21T05:11:36;95137.09;;;3.22;100.00
27210;BME280;14721;42.668;23.386;2023-11-21T05:14:04;95134.25;;;3.27;100.00
27210;BME280;14721;42.668;23.386;2023-11-21T05:16:58;95039.06;;;2.94;100.00
27210;BME280;14721;42.668;23.386;2023-11-21T05:19:34;95102.88;;;3.38;100.00
27210;BME280;14721;42.668;23.386;2023-11-21T05:22:02;95091.94;;;3.28;100.00
27210;BME280;14721;42.668;23.386;2023-11-21T05:24:31;95098.81;;;3.31;100.00
27210;BME280;14721;42.668;23.386;2023-11-21T05:26:56;95108.78;;;3.43;100.00
27210;BME280;14721;42.668;23.386;2023-11-21T05:29:23;95077.47;;;3.35;100.00
27210;BME280;14721;42.668;23.386;2023-11-21T05:31:51;95086.56;;;3.30;100.00
27210;BME280;14721;42.668;23.386;2023-11-21T05:34:16;95132.25;;;3.49;100.00
27210;BME280;14721;42.668;23.386;2023-11-21T05:36:45;95110.94;;;3.35;100.00
27210;BME280;14721;42.668;23.386;2023-11-21T05:39:13;95137.38;;;3.52;100.00
27210;BME280;14721;42.668;23.386;2023-11-21T05:41:39;95133.63;;;3.56;100.00
27210;BME280;14721;42.668;23.386;2023-11-21T05:44:04;95130.09;;;3.57;100.00
27210;BME280;14721;42.668;23.386;2023-11-21T05:46:30;95120.97;;;3.45;100.00
27210;BME280;14721;42.668;23.386;2023-11-21T05:48:56;95118.00;;;3.51;100.00
27210;BME280;14721;42.668;23.386;2023-11-21T05:51:21;95132.16;;;3.50;100.00
27210;BME280;14721;42.668;23.386;2023-11-21T05:53:49;95116.06;;;3.38;100.00
27210;BME280;14721;42.668;23.386;2023-11-21T05:56:15;95125.56;;;3.59;100.00
27210;BME280;14721;42.668;23.386;2023-11-21T05:58:40;95129.84;;;3.61;100.00
27210;BME280;14721;42.668;23.386;2023-11-21T06:01:07;95095.16;;;3.33;100.00
27210;BME280;14721;42.668;23.386;2023-11-21T06:03:46;95127.75;;;3.51;100.00
27210;BME280;14721;42.668;23.386;2023-11-21T06:06:13;95134.91;;;3.66;100.00
27210;BME280;14721;42.668;23.386;2023-11-21T06:08:51;95139.47;;;3.62;100.00
27210;BME280;14721;42.668;23.386;2023-11-21T06:11:17;95095.66;;;3.58;100.00
27210;BME280;14721;42.668;23.386;2023-11-21T06:13:43;95117.88;;;3.71;100.00
27210;BME280;14721;42.668;23.386;2023-11-21T06:16:09;95112.91;;;3.65;100.00
27210;BME280;14721;42.668;23.386;2023-11-21T06:21:10;95105.00;;;3.98;100.00
27210;BME280;14721;42.668;23.386;2023-11-21T06:23:41;95110.69;;;4.08;99.74
27210;BME280;14721;42.668;23.386;2023-11-21T06:26:07;95125.94;;;4.35;98.86
27210;BME280;14721;42.668;23.386;2023-11-21T06:28:34;95120.38;;;4.24;97.02
27210;BME280;14721;42.668;23.386;2023-11-21T06:31:03;95169.25;;;4.50;95.89
27210;BME280;14721;42.668;23.386;2023-11-21T06:33:31;95141.91;;;4.34;95.42
27210;BME280;14721;42.668;23.386;2023-11-21T06:35:57;95141.75;;;4.52;95.80
27210;BME280;14721;42.668;23.386;2023-11-21T06:38:22;95157.69;;;4.83;95.05
27210;BME280;14721;42.668;23.386;2023-11-21T06:40:48;95166.47;;;5.15;94.10
27210;BME280;14721;42.668;23.386;2023-11-21T06:43:13;95156.47;;;5.51;92.74
27210;BME280;14721;42.668;23.386;2023-11-21T06:45:39;95146.88;;;5.64;90.91
27210;BME280;14721;42.668;23.386;2023-11-21T06:48:05;95169.72;;;5.96;89.00
27210;BME280;14721;42.668;23.386;2023-11-21T06:50:30;95148.97;;;6.18;87.90
27210;BME280;14721;42.668;23.386;2023-11-21T06:52:56;95126.25;;;6.28;86.20
27210;BME280;14721;42.668;23.386;2023-11-21T06:55:21;95120.66;;;6.47;84.89
27210;BME280;14721;42.668;23.386;2023-11-21T06:57:49;95112.69;;;6.89;83.59
27210;BME280;14721;42.668;23.386;2023-11-21T07:00:28;95162.78;;;7.35;80.96
27210;BME280;14721;42.668;23.386;2023-11-21T07:03:07;95154.25;;;7.57;80.18
27210;BME280;14721;42.668;23.386;2023-11-21T07:05:33;95170.22;;;7.84;78.65
27210;BME280;14721;42.668;23.386;2023-11-21T07:08:02;95075.22;;;7.46;78.40
27210;BME280;14721;42.668;23.386;2023-11-21T07:10:39;95111.69;;;7.84;77.80
27210;BME280;14721;42.668;23.386;2023-11-21T07:13:05;95116.53;;;7.64;77.29
27210;BME280;14721;42.668;23.386;2023-11-21T07:15:32;95155.31;;;7.81;77.90
27210;BME280;14721;42.668;23.386;2023-11-21T07:17:58;95136.44;;;7.71;78.45
27210;BME280;14721;42.668;23.386;2023-11-21T07:20:23;95136.69;;;7.81;79.04
27210;BME280;14721;42.668;23.386;2023-11-21T07:22:49;95141.81;;;7.84;78.38
27210;BME280;14721;42.668;23.386;2023-11-21T07:25:14;95137.56;;;7.82;78.48
27210;BME280;14721;42.668;23.386;2023-11-21T07:27:40;95094.44;;;7.64;78.87
27210;BME280;14721;42.668;23.386;2023-11-21T07:30:30;95152.81;;;7.92;78.24
27210;BME280;14721;42.668;23.386;2023-11-21T07:32:58;95114.84;;;7.63;78.07
27210;BME280;14721;42.668;23.386;2023-11-21T07:35:37;95099.09;;;7.60;78.25
27210;BME280;14721;42.668;23.386;2023-11-21T07:38:02;95139.84;;;7.73;78.38
27210;BME280;14721;42.668;23.386;2023-11-21T07:40:28;95158.69;;;7.70;79.04
27210;BME280;14721;42.668;23.386;2023-11-21T07:43:07;95156.41;;;7.64;79.61
27210;BME280;14721;42.668;23.386;2023-11-21T07:45:36;95133.69;;;7.46;79.64
27210;BME280;14721;42.668;23.386;2023-11-21T07:48:06;95100.34;;;7.28;79.77
27210;BME280;14721;42.668;23.386;2023-11-21T07:50:51;95113.50;;;7.44;79.96
27210;BME280;14721;42.668;23.386;2023-11-21T07:53:27;95135.72;;;7.43;80.38
27210;BME280;14721;42.668;23.386;2023-11-21T07:55:56;95143.31;;;7.35;81.53
27210;BME280;14721;42.668;23.386;2023-11-21T07:58:24;95134.97;;;7.27;82.02
27210;BME280;14721;42.668;23.386;2023-11-21T08:00:52;95132.28;;;7.14;82.81
27210;BME280;14721;42.668;23.386;2023-11-21T08:03:17;95111.81;;;7.02;83.23
27210;BME280;14721;42.668;23.386;2023-11-21T08:05:43;95128.66;;;7.15;83.33
27210;BME280;14721;42.668;23.386;2023-11-21T08:08:10;95120.41;;;7.06;83.60
27210;BME280;14721;42.668;23.386;2023-11-21T08:10:36;95103.66;;;6.91;84.54
27210;BME280;14721;42.668;23.386;2023-11-21T08:13:02;95077.22;;;6.76;84.43
27210;BME280;14721;42.668;23.386;2023-11-21T08:15:29;95104.78;;;7.01;84.23
27210;BME280;14721;42.668;23.386;2023-11-21T08:17:57;95107.81;;;7.09;84.29
27210;BME280;14721;42.668;23.386;2023-11-21T08:20:22;95120.41;;;7.20;84.96
27210;BME280;14721;42.668;23.386;2023-11-21T08:22:51;95074.81;;;6.99;84.71
27210;BME280;14721;42.668;23.386;2023-11-21T08:25:18;95129.63;;;7.41;84.94
27210;BME280;14721;42.668;23.386;2023-11-21T08:27:45;95121.16;;;7.48;84.49
27210;BME280;14721;42.668;23.386;2023-11-21T08:30:31;95080.59;;;7.32;83.38
27210;BME280;14721;42.668;23.386;2023-11-21T08:33:10;95089.53;;;7.58;82.40
27210;BME280;14721;42.668;23.386;2023-11-21T08:35:47;95063.56;;;7.49;82.04
27210;BME280;14721;42.668;23.386;2023-11-21T08:42:04;95090.91;;;7.63;81.26
27210;BME280;14721;42.668;23.386;2023-11-21T08:44:57;95081.56;;;7.70;80.68
27210;BME280;14721;42.668;23.386;2023-11-21T08:47:45;95132.34;;;7.93;81.11
27210;BME280;14721;42.668;23.386;2023-11-21T08:50:31;95111.38;;;7.88;81.07
27210;BME280;14721;42.668;23.386;2023-11-21T08:53:00;95105.53;;;7.96;81.19
27210;BME280;14721;42.668;23.386;2023-11-21T08:55:26;95117.50;;;8.03;80.74
27210;BME280;14721;42.668;23.386;2023-11-21T08:57:51;95088.72;;;7.83;81.22
27210;BME280;14721;42.668;23.386;2023-11-21T09:00:19;95105.00;;;8.30;80.96
27210;BME280;14721;42.668;23.386;2023-11-21T09:02:50;95088.28;;;8.28;79.74
27210;BME280;14721;42.668;23.386;2023-11-21T09:05:16;95100.53;;;8.55;79.00
27210;BME280;14721;42.668;23.386;2023-11-21T09:07:46;95081.97;;;8.66;78.60
27210;BME280;14721;42.668;23.386;2023-11-21T09:13:18;95066.91;;;8.90;77.21
27210;BME280;14721;42.668;23.386;2023-11-21T09:18:45;95043.22;;;9.11;75.06
27210;BME280;14721;42.668;23.386;2023-11-21T09:21:37;95027.03;;;9.01;75.87
27210;BME280;14721;42.668;23.386;2023-11-21T09:24:14;95024.22;;;9.15;75.35
27210;BME280;14721;42.668;23.386;2023-11-21T09:26:39;95030.84;;;9.10;75.35
27210;BME280;14721;42.668;23.386;2023-11-21T09:29:08;95031.66;;;9.23;75.55
27210;BME280;14721;42.668;23.386;2023-11-21T09:31:36;95025.44;;;9.46;75.40
27210;BME280;14721;42.668;23.386;2023-11-21T09:34:04;95000.75;;;9.55;75.33
27210;BME280;14721;42.668;23.386;2023-11-21T09:36:31;94991.38;;;9.73;74.44
27210;BME280;14721;42.668;23.386;2023-11-21T09:39:01;95002.28;;;9.70;73.76
27210;BME280;14721;42.668;23.386;2023-11-21T09:41:46;95005.81;;;9.71;73.50
27210;BME280;14721;42.668;23.386;2023-11-21T09:44:13;94986.03;;;9.62;73.90
27210;BME280;14721;42.668;23.386;2023-11-21T09:46:43;94986.38;;;9.69;73.97
27210;BME280;14721;42.668;23.386;2023-11-21T09:49:09;94964.94;;;9.70;74.44
27210;BME280;14721;42.668;23.386;2023-11-21T09:51:49;94974.56;;;9.95;73.78
27210;BME280;14721;42.668;23.386;2023-11-21T09:54:16;94967.53;;;9.83;73.46
27210;BME280;14721;42.668;23.386;2023-11-21T09:59:18;94947.84;;;10.07;73.55
27210;BME280;14721;42.668;23.386;2023-11-21T10:01:54;94937.75;;;10.11;72.75
27210;BME280;14721;42.668;23.386;2023-11-21T10:04:31;94884.66;;;9.73;72.73
27210;BME280;14721;42.668;23.386;2023-11-21T10:07:00;94936.13;;;9.97;73.05
27210;BME280;14721;42.668;23.386;2023-11-21T10:09:29;94938.38;;;10.14;73.00
27210;BME280;14721;42.668;23.386;2023-11-21T10:11:55;94934.00;;;10.35;72.09
27210;BME280;14721;42.668;23.386;2023-11-21T10:14:24;94930.84;;;10.41;72.09
27210;BME280;14721;42.668;23.386;2023-11-21T10:16:52;94916.75;;;10.50;72.05
27210;BME280;14721;42.668;23.386;2023-11-21T10:19:19;94912.97;;;10.53;70.99
27210;BME280;14721;42.668;23.386;2023-11-21T10:21:49;94899.44;;;10.76;70.17
27210;BME280;14721;42.668;23.386;2023-11-21T10:24:25;94902.91;;;10.56;69.92
27210;BME280;14721;42.668;23.386;2023-11-21T10:26:53;94879.19;;;10.74;69.97
27210;BME280;14721;42.668;23.386;2023-11-21T10:29:18;94895.00;;;10.97;69.62
27210;BME280;14721;42.668;23.386;2023-11-21T10:31:49;94907.63;;;11.06;68.95
27210;BME280;14721;42.668;23.386;2023-11-21T10:34:20;94896.94;;;11.06;68.55
27210;BME280;14721;42.668;23.386;2023-11-21T10:36:46;94865.41;;;10.89;68.25
27210;BME280;14721;42.668;23.386;2023-11-21T10:39:18;94903.53;;;11.23;67.55
27210;BME280;14721;42.668;23.386;2023-11-21T10:41:45;94892.28;;;11.40;67.66
27210;BME280;14721;42.668;23.386;2023-11-21T10:44:15;94879.84;;;11.50;67.46
27210;BME280;14721;42.668;23.386;2023-11-21T10:49:28;94809.66;;;11.16;64.95
27210;BME280;14721;42.668;23.386;2023-11-21T10:51:56;94897.56;;;11.83;64.49
27210;BME280;14721;42.668;23.386;2023-11-21T10:54:25;94870.97;;;11.91;63.83
27210;BME280;14721;42.668;23.386;2023-11-21T10:57:00;94874.53;;;12.21;63.86
27210;BME280;14721;42.668;23.386;2023-11-21T10:59:29;94860.84;;;12.24;63.34
27210;BME280;14721;42.668;23.386;2023-11-21T11:01:58;94879.41;;;12.46;62.95
27210;BME280;14721;42.668;23.386;2023-11-21T11:04:25;94866.41;;;12.42;62.33
27210;BME280;14721;42.668;23.386;2023-11-21T11:06:57;94868.28;;;12.51;62.68
27210;BME280;14721;42.668;23.386;2023-11-21T11:09:26;94857.97;;;12.37;62.60
27210;BME280;14721;42.668;23.386;2023-11-21T11:11:52;94881.13;;;12.47;63.29
27210;BME280;14721;42.668;23.386;2023-11-21T11:14:22;94857.09;;;12.36;62.24
27210;BME280;14721;42.668;23.386;2023-11-21T11:16:53;94839.47;;;12.34;62.33
27210;BME280;14721;42.668;23.386;2023-11-21T11:19:19;94848.06;;;12.28;62.09
27210;BME280;14721;42.668;23.386;2023-11-21T11:21:53;94861.03;;;12.32;62.93
27210;BME280;14721;42.668;23.386;2023-11-21T11:27:15;94833.50;;;12.21;63.85
27210;BME280;14721;42.668;23.386;2023-11-21T11:30:14;94833.41;;;12.32;63.45
27210;BME280;14721;42.668;23.386;2023-11-21T11:32:54;94842.88;;;12.45;62.98
27210;BME280;14721;42.668;23.386;2023-11-21T11:38:35;94773.00;;;12.18;61.66
27210;BME280;14721;42.668;23.386;2023-11-21T11:41:04;94799.84;;;12.28;61.39
27210;BME280;14721;42.668;23.386;2023-11-21T11:43:31;94786.41;;;12.18;61.27
27210;BME280;14721;42.668;23.386;2023-11-21T11:46:08;94796.25;;;12.08;61.82
27210;BME280;14721;42.668;23.386;2023-11-21T11:48:39;94808.09;;;12.15;62.11
27210;BME280;14721;42.668;23.386;2023-11-21T11:51:06;94822.75;;;12.11;62.53
27210;BME280;14721;42.668;23.386;2023-11-21T11:53:40;94838.72;;;11.92;63.39
27210;BME280;14721;42.668;23.386;2023-11-21T11:56:22;94823.34;;;11.64;65.24
27210;BME280;14721;42.668;23.386;2023-11-21T11:58:49;94824.91;;;11.46;66.83
27210;BME280;14721;42.668;23.386;2023-11-21T12:01:19;94834.69;;;11.36;67.57
27210;BME280;14721;42.668;23.386;2023-11-21T12:06:51;94798.72;;;10.88;69.43
27210;BME280;14721;42.668;23.386;2023-11-21T12:09:21;94767.38;;;10.58;69.36
27210;BME280;14721;42.668;23.386;2023-11-21T12:11:52;94825.06;;;10.92;69.34
27210;BME280;14721;42.668;23.386;2023-11-21T12:14:18;94814.66;;;10.78;71.28
27210;BME280;14721;42.668;23.386;2023-11-21T12:16:44;94812.66;;;10.60;72.76
27210;BME280;14721;42.668;23.386;2023-11-21T12:19:11;94802.53;;;10.32;73.10
27210;BME280;14721;42.668;23.386;2023-11-21T12:21:37;94820.78;;;10.27;74.47
27210;BME280;14721;42.668;23.386;2023-11-21T12:24:03;94830.22;;;10.20;74.88
27210;BME280;14721;42.668;23.386;2023-11-21T12:26:29;94824.19;;;10.07;76.97
27210;BME280;14721;42.668;23.386;2023-11-21T12:28:54;94805.50;;;9.85;78.59
27210;BME280;14721;42.668;23.386;2023-11-21T12:31:23;94787.19;;;9.69;80.46
27210;BME280;14721;42.668;23.386;2023-11-21T12:33:51;94771.66;;;9.63;80.86
27210;BME280;14721;42.668;23.386;2023-11-21T12:36:20;94814.34;;;9.85;81.95
27210;BME280;14721;42.668;23.386;2023-11-21T12:38:57;94816.91;;;9.76;82.91
27210;BME280;14721;42.668;23.386;2023-11-21T12:41:22;94813.97;;;9.68;83.16
27210;BME280;14721;42.668;23.386;2023-11-21T12:43:50;94819.31;;;9.79;83.03
27210;BME280;14721;42.668;23.386;2023-11-21T12:46:17;94811.31;;;9.68;84.06
27210;BME280;14721;42.668;23.386;2023-11-21T12:48:54;94834.59;;;9.77;83.79
27210;BME280;14721;42.668;23.386;2023-11-21T12:51:21;94801.97;;;9.62;84.95
27210;BME280;14721;42.668;23.386;2023-11-21T12:54:00;94817.50;;;9.68;84.73
27210;BME280;14721;42.668;23.386;2023-11-21T12:56:26;94782.56;;;9.49;84.54
27210;BME280;14721;42.668;23.386;2023-11-21T12:58:53;94784.41;;;9.71;84.42
27210;BME280;14721;42.668;23.386;2023-11-21T13:01:25;94784.75;;;9.88;83.67
27210;BME280;14721;42.668;23.386;2023-11-21T13:03:59;94755.13;;;9.91;83.87
27210;BME280;14721;42.668;23.386;2023-11-21T13:06:31;94757.31;;;9.97;83.60
27210;BME280;14721;42.668;23.386;2023-11-21T13:08:59;94761.47;;;9.90;83.13
27210;BME280;14721;42.668;23.386;2023-11-21T13:11:25;94787.03;;;10.04;84.03
27210;BME280;14721;42.668;23.386;2023-11-21T13:13:52;94781.47;;;10.07;83.28
27210;BME280;14721;42.668;23.386;2023-11-21T13:16:18;94782.44;;;10.17;84.37
27210;BME280;14721;42.668;23.386;2023-11-21T13:18:45;94736.59;;;10.12;85.39
27210;BME280;14721;42.668;23.386;2023-11-21T13:21:11;94788.78;;;10.47;85.10
27210;BME280;14721;42.668;23.386;2023-11-21T13:23:41;94785.00;;;10.50;84.07
27210;BME280;14721;42.668;23.386;2023-11-21T13:26:07;94760.69;;;10.32;83.14
27210;BME280;14721;42.668;23.386;2023-11-21T13:28:34;94777.59;;;10.53;82.05
27210;BME280;14721;42.668;23.386;2023-11-21T13:31:02;94772.59;;;10.60;82.17
27210;BME280;14721;42.668;23.386;2023-11-21T13:33:35;94732.00;;;10.34;81.95
27210;BME280;14721;42.668;23.386;2023-11-21T13:36:06;94779.25;;;10.65;81.36
27210;BME280;14721;42.668;23.386;2023-11-21T13:38:35;94770.00;;;10.69;81.08
27210;BME280;14721;42.668;23.386;2023-11-21T13:41:02;94753.25;;;10.67;80.37
27210;BME280;14721;42.668;23.386;2023-11-21T13:44:01;94712.44;;;10.45;80.41
27210;BME280;14721;42.668;23.386;2023-11-21T13:50:25;94715.16;;;10.65;79.26
27210;BME280;14721;42.668;23.386;2023-11-21T14:13:46;94752.28;;;10.68;80.14
27210;BME280;14721;42.668;23.386;2023-11-21T14:16:14;94744.81;;;10.51;80.90
27210;BME280;14721;42.668;23.386;2023-11-21T14:18:44;94765.06;;;10.54;81.14
27210;BME280;14721;42.668;23.386;2023-11-21T14:21:33;94746.81;;;10.38;81.94
27210;BME280;14721;42.668;23.386;2023-11-21T14:24:35;94763.41;;;10.53;82.28
27210;BME280;14721;42.668;23.386;2023-11-21T14:27:13;94767.44;;;10.47;83.09
27210;BME280;14721;42.668;23.386;2023-11-21T14:32:55;94761.09;;;10.48;82.94
27210;BME280;14721;42.668;23.386;2023-11-21T14:35:26;94720.16;;;10.27;82.53
27210;BME280;14721;42.668;23.386;2023-11-21T14:38:05;94704.75;;;10.20;83.49
27210;BME280;14721;42.668;23.386;2023-11-21T14:40:41;94755.66;;;10.39;82.85
27210;BME280;14721;42.668;23.386;2023-11-21T14:43:18;94750.25;;;10.29;84.02
27210;BME280;14721;42.668;23.386;2023-11-21T14:46:04;94713.41;;;10.01;84.81
27210;BME280;14721;42.668;23.386;2023-11-21T14:48:34;94714.84;;;10.05;84.77
27210;BME280;14721;42.668;23.386;2023-11-21T14:51:12;94757.31;;;10.19;85.73
27210;BME280;14721;42.668;23.386;2023-11-21T14:54:19;94706.03;;;9.94;85.83
27210;BME280;14721;42.668;23.386;2023-11-21T14:57:32;94702.88;;;10.00;85.82
27210;BME280;14721;42.668;23.386;2023-11-21T15:00:12;94734.22;;;10.29;85.58
27210;BME280;14721;42.668;23.386;2023-11-21T15:02:56;94724.78;;;10.03;86.54
27210;BME280;14721;42.668;23.386;2023-11-21T15:08:55;94754.28;;;10.13;86.62
27210;BME280;14721;42.668;23.386;2023-11-21T15:11:43;94724.78;;;10.03;87.28
27210;BME280;14721;42.668;23.386;2023-11-21T15:14:11;94738.03;;;10.16;87.20
27210;BME280;14721;42.668;23.386;2023-11-21T15:19:48;94703.75;;;9.78;88.00
27210;BME280;14721;42.668;23.386;2023-11-21T15:22:41;94701.44;;;9.85;88.21
27210;BME280;14721;42.668;23.386;2023-11-21T15:25:09;94721.91;;;9.95;88.15
27210;BME280;14721;42.668;23.386;2023-11-21T15:27:45;94745.56;;;10.00;88.68
27210;BME280;14721;42.668;23.386;2023-11-21T15:30:16;94733.28;;;9.97;89.18
27210;BME280;14721;42.668;23.386;2023-11-21T15:32:58;94719.13;;;9.86;89.28
27210;BME280;14721;42.668;23.386;2023-11-21T15:35:24;94737.06;;;9.84;90.44
27210;BME280;14721;42.668;23.386;2023-11-21T15:37:49;94727.63;;;9.69;91.52